createdAt,value
2022-12-15T00:00:23.570Z,97390.09
2022-12-15T00:03:10.358Z,97389.97
2022-12-15T00:05:57.270Z,97402.31
2022-12-15T00:08:43.900Z,97400.72
2022-12-15T00:11:30.237Z,97401.19
2022-12-15T00:14:16.843Z,97395.63
2022-12-15T00:17:03.396Z,97400.09
2022-12-15T00:19:50.167Z,97410.81
2022-12-15T00:22:36.656Z,97401.63
2022-12-15T00:25:23.643Z,97406.31
2022-12-15T00:28:10.086Z,97409.53
2022-12-15T00:31:02.116Z,97405.41
2022-12-15T00:33:49.189Z,97418.59
2022-12-15T00:36:35.715Z,97416.66
2022-12-15T00:39:04.282Z,97410.59
2022-12-15T00:41:32.340Z,97414.00
2022-12-15T00:44:00.231Z,97415.41
2022-12-15T00:46:46.878Z,97420.81
2022-12-15T00:49:33.783Z,97428.50
2022-12-15T00:52:20.538Z,97427.81
2022-12-15T00:55:07.365Z,97427.03
2022-12-15T00:57:53.973Z,97433.22
2022-12-15T01:00:41.008Z,97436.81
2022-12-15T01:03:31.218Z,97432.19
2022-12-15T01:06:18.410Z,97443.94
2022-12-15T01:09:04.624Z,97438.44
2022-12-15T01:11:51.387Z,97436.25
2022-12-15T01:14:38.199Z,97431.81
2022-12-15T01:17:24.677Z,97425.31
2022-12-15T01:20:11.853Z,97408.84
2022-12-15T01:22:40.767Z,97442.50
2022-12-15T01:25:10.437Z,97447.78
2022-12-15T01:27:38.542Z,97430.66
2022-12-15T01:30:08.366Z,97449.16
2022-12-15T01:32:39.371Z,97438.63
2022-12-15T01:35:10.883Z,97439.00
2022-12-15T01:37:39.455Z,97442.34
2022-12-15T01:40:30.259Z,97443.56
2022-12-15T01:42:58.315Z,97441.44
2022-12-15T01:45:29.189Z,97456.84
2022-12-15T01:48:03.248Z,97451.50
2022-12-15T01:50:37.674Z,97463.66
2022-12-15T01:53:06.110Z,97452.28
2022-12-15T01:55:34.044Z,97450.59
2022-12-15T01:58:06.790Z,97455.47
2022-12-15T02:00:35.358Z,97451.44
2022-12-15T02:03:06.674Z,97453.28
2022-12-15T02:05:35.652Z,97452.84
2022-12-15T02:08:05.337Z,97468.16
2022-12-15T02:11:14.466Z,97464.66
2022-12-15T02:14:06.691Z,97476.28
2022-12-15T02:17:29.458Z,97476.59
2022-12-15T02:20:28.171Z,97470.16
2022-12-15T02:23:14.230Z,97467.66
2022-12-15T02:26:03.233Z,97470.00
2022-12-15T02:28:55.377Z,97483.69
2022-12-15T02:31:49.933Z,97480.38
2022-12-15T02:34:18.350Z,97499.88
2022-12-15T02:36:59.487Z,97509.31
2022-12-15T02:39:27.615Z,97508.72
2022-12-15T02:41:55.526Z,97502.50
2022-12-15T02:44:35.605Z,97498.50
2022-12-15T02:47:06.554Z,97504.41
2022-12-15T02:49:49.994Z,97503.91
2022-12-15T02:52:26.984Z,97507.31
2022-12-15T02:55:05.395Z,97513.81
2022-12-15T02:57:44.628Z,97509.31
2022-12-15T03:00:15.725Z,97527.28
2022-12-15T03:02:51.402Z,97528.16
2022-12-15T03:05:22.698Z,97524.56
2022-12-15T03:07:54.871Z,97521.44
2022-12-15T03:10:25.667Z,97519.25
2022-12-15T03:12:54.734Z,97520.34
2022-12-15T03:15:22.633Z,97516.53
2022-12-15T03:17:50.517Z,97527.56
2022-12-15T03:20:18.385Z,97527.75
2022-12-15T03:22:46.287Z,97537.56
2022-12-15T03:25:14.443Z,97532.75
2022-12-15T03:27:42.409Z,97533.25
2022-12-15T03:30:10.839Z,97535.97
2022-12-15T03:32:38.746Z,97546.00
2022-12-15T03:35:07.477Z,97563.91
2022-12-15T03:37:35.568Z,97560.22
2022-12-15T03:40:03.765Z,97565.94
2022-12-15T03:42:49.899Z,97558.22
2022-12-15T03:45:23.332Z,97581.03
2022-12-15T03:47:51.919Z,97573.81
2022-12-15T03:50:22.466Z,97580.28
2022-12-15T03:53:03.490Z,97578.25
2022-12-15T03:55:31.442Z,97584.97
2022-12-15T03:57:59.426Z,97587.56
2022-12-15T04:00:27.521Z,97582.66
2022-12-15T04:02:55.815Z,97584.38
2022-12-15T04:05:29.549Z,97576.34
2022-12-15T04:07:59.419Z,97596.38
2022-12-15T04:10:33.998Z,97606.41
2022-12-15T04:13:08.034Z,97617.50
2022-12-15T04:15:37.786Z,97619.72
2022-12-15T04:18:07.484Z,97616.72
2022-12-15T04:20:35.825Z,97621.13
2022-12-15T04:23:03.722Z,97622.31
2022-12-15T04:25:50.298Z,97616.31
2022-12-15T04:28:36.928Z,97614.72
2022-12-15T04:31:29.761Z,97617.72
2022-12-15T04:34:20.965Z,97609.91
2022-12-15T04:37:10.651Z,97607.31
2022-12-15T04:40:01.646Z,97622.22
2022-12-15T04:42:51.043Z,97630.25
2022-12-15T04:45:40.878Z,97629.34
2022-12-15T04:48:28.221Z,97641.94
2022-12-15T04:51:14.990Z,97637.16
2022-12-15T04:54:04.546Z,97636.75
2022-12-15T04:56:51.144Z,97643.25
2022-12-15T04:59:38.077Z,97649.88
2022-12-15T05:02:24.692Z,97655.88
2022-12-15T05:05:12.329Z,97665.00
2022-12-15T05:07:59.223Z,97676.53
2022-12-15T05:10:45.637Z,97662.41
2022-12-15T05:13:32.691Z,97660.38
2022-12-15T05:16:19.691Z,97658.72
2022-12-15T05:19:06.101Z,97671.00
2022-12-15T05:21:52.706Z,97683.44
2022-12-15T05:24:39.340Z,97675.53
2022-12-15T05:27:26.013Z,97668.50
2022-12-15T05:30:12.401Z,97672.63
2022-12-15T05:32:40.544Z,97675.84
2022-12-15T05:35:08.525Z,97681.63
2022-12-15T05:37:36.438Z,97680.53
2022-12-15T05:40:05.431Z,97688.47
2022-12-15T05:42:34.364Z,97698.25
2022-12-15T05:45:02.226Z,97691.66
2022-12-15T05:47:31.038Z,97682.56
2022-12-15T05:49:58.897Z,97688.25
2022-12-15T05:52:27.097Z,97699.03
2022-12-15T05:54:55.029Z,97692.06
2022-12-15T05:57:22.988Z,97706.09
2022-12-15T05:59:50.837Z,97710.09
2022-12-15T06:02:18.842Z,97720.13
2022-12-15T06:04:46.791Z,97727.72
2022-12-15T06:07:14.738Z,97722.91
2022-12-15T06:09:42.667Z,97720.91
2022-12-15T06:12:10.556Z,97732.72
2022-12-15T06:14:38.461Z,97727.72
2022-12-15T06:17:06.400Z,97725.03
2022-12-15T06:19:34.309Z,97717.88
2022-12-15T06:22:02.343Z,97720.50
2022-12-15T06:24:30.205Z,97730.31
2022-12-15T06:26:58.146Z,97719.69
2022-12-15T06:29:26.018Z,97720.41
2022-12-15T06:31:53.950Z,97738.94
2022-12-15T06:34:21.869Z,97743.72
2022-12-15T06:36:50.360Z,97747.97
2022-12-15T06:39:18.382Z,97736.94
2022-12-15T06:41:46.670Z,97745.78
2022-12-15T06:44:16.166Z,97743.56
2022-12-15T06:46:45.741Z,97753.78
2022-12-15T06:49:14.538Z,97754.78
2022-12-15T06:51:44.043Z,97766.00
2022-12-15T06:54:12.027Z,97753.97
2022-12-15T06:56:39.941Z,97766.19
2022-12-15T06:59:08.497Z,97762.78
2022-12-15T07:01:36.612Z,97764.78
2022-12-15T07:04:05.794Z,97775.81
2022-12-15T07:06:38.656Z,97784.53
2022-12-15T07:09:10.738Z,97785.53
2022-12-15T07:11:38.859Z,97786.44
2022-12-15T07:14:06.841Z,97791.63
2022-12-15T07:16:34.901Z,97802.28
2022-12-15T07:19:02.887Z,97804.88
2022-12-15T07:21:30.967Z,97798.25
2022-12-15T07:23:59.733Z,97795.53
2022-12-15T07:26:28.571Z,97809.69
2022-12-15T07:28:56.680Z,97819.28
2022-12-15T07:31:24.860Z,97814.38
2022-12-15T07:33:54.541Z,97817.28
2022-12-15T07:36:22.727Z,97810.06
2022-12-15T07:38:51.609Z,97809.75
2022-12-15T07:41:20.638Z,97804.94
2022-12-15T07:43:49.411Z,97815.28
2022-12-15T07:46:18.237Z,97811.13
2022-12-15T07:48:50.237Z,97817.31
2022-12-15T07:51:20.620Z,97809.09
2022-12-15T07:53:51.277Z,97802.09
2022-12-15T07:56:20.318Z,97803.69
2022-12-15T07:58:48.301Z,97807.50
2022-12-15T08:01:17.004Z,97814.91
2022-12-15T08:03:45.440Z,97832.59
2022-12-15T08:06:14.762Z,97830.59
2022-12-15T08:08:44.752Z,97829.00
2022-12-15T08:11:19.592Z,97832.19
2022-12-15T08:14:05.632Z,97827.28
2022-12-15T08:16:36.733Z,97830.97
2022-12-15T08:19:05.565Z,97829.56
2022-12-15T08:21:34.044Z,97825.78
2022-12-15T08:24:02.315Z,97811.13
2022-12-15T08:26:31.799Z,97803.53
2022-12-15T08:29:40.398Z,97807.34
2022-12-15T08:31:53.039Z,97813.84
2022-12-15T08:34:21.564Z,97806.75
2022-12-15T08:36:49.495Z,97813.56
2022-12-15T08:39:17.622Z,97820.56
2022-12-15T08:41:45.533Z,97817.97
2022-12-15T08:44:13.896Z,97823.19
2022-12-15T08:46:42.354Z,97819.78
2022-12-15T08:49:10.580Z,97821.06
2022-12-15T08:51:38.466Z,97825.28
2022-12-15T08:54:08.098Z,97824.56
2022-12-15T08:56:36.084Z,97834.41
2022-12-15T08:59:04.049Z,97839.09
2022-12-15T09:01:33.079Z,97861.06
2022-12-15T09:04:04.114Z,97869.19
2022-12-15T09:06:34.827Z,97866.50
2022-12-15T09:09:07.294Z,97872.72
2022-12-15T09:11:35.485Z,97860.56
2022-12-15T09:14:04.105Z,97860.19
2022-12-15T09:16:32.193Z,97856.66
2022-12-15T09:19:00.394Z,97870.94
2022-12-15T09:21:30.271Z,97872.00
2022-12-15T09:24:01.834Z,97863.41
2022-12-15T09:26:33.583Z,97859.69
2022-12-15T09:29:02.461Z,97839.34
2022-12-15T09:31:34.055Z,97849.19
2022-12-15T09:34:02.403Z,97849.06
2022-12-15T09:36:32.840Z,97873.16
2022-12-15T09:39:02.884Z,97856.28
2022-12-15T09:41:33.668Z,97863.31
2022-12-15T09:44:15.116Z,97872.34
2022-12-15T09:47:23.114Z,97860.50
2022-12-15T09:49:57.991Z,97857.88
2022-12-15T09:52:29.517Z,97866.91
2022-12-15T09:54:58.162Z,97853.47
2022-12-15T09:58:23.178Z,97849.69
2022-12-15T10:01:01.191Z,97848.97
2022-12-15T10:03:55.134Z,97858.72
2022-12-15T10:06:33.936Z,97859.09
2022-12-15T10:09:22.887Z,97856.56
2022-12-15T10:11:57.653Z,97853.06
2022-12-15T10:14:37.705Z,97859.69
2022-12-15T10:17:21.450Z,97861.69
2022-12-15T10:19:56.359Z,97871.13
2022-12-15T10:22:26.557Z,97870.13
2022-12-15T10:25:11.152Z,97875.97
2022-12-15T10:27:49.309Z,97882.97
2022-12-15T10:30:17.602Z,97881.88
2022-12-15T10:32:57.573Z,97875.97
2022-12-15T10:35:30.264Z,97876.97
2022-12-15T10:38:00.231Z,97866.31
2022-12-15T10:40:51.996Z,97867.44
2022-12-15T10:43:35.534Z,97856.50
2022-12-15T10:46:07.452Z,97851.44
2022-12-15T10:48:36.616Z,97831.00
2022-12-15T10:51:21.511Z,97830.78
2022-12-15T10:54:06.678Z,97824.75
2022-12-15T10:56:35.027Z,97823.84
2022-12-15T10:59:23.028Z,97822.91
2022-12-15T11:01:52.100Z,97817.09
2022-12-15T11:04:26.198Z,97815.78
2022-12-15T11:07:02.698Z,97820.91
2022-12-15T11:09:37.121Z,97811.13
2022-12-15T11:12:38.873Z,97809.28
2022-12-15T11:15:21.763Z,97800.81
2022-12-15T11:18:01.775Z,97790.88
2022-12-15T11:20:40.548Z,97777.13
2022-12-15T11:23:34.506Z,97771.38
2022-12-15T11:26:22.874Z,97777.66
2022-12-15T11:28:58.226Z,97767.63
2022-12-15T11:31:37.914Z,97763.41
2022-12-15T11:34:14.821Z,97766.78
2022-12-15T11:36:55.171Z,97775.81
2022-12-15T11:39:29.114Z,97777.06
2022-12-15T11:42:10.912Z,97784.50
2022-12-15T11:44:53.007Z,97786.72
2022-12-15T11:47:40.717Z,97786.69
2022-12-15T11:50:31.327Z,97804.34
2022-12-15T11:53:19.693Z,97800.56
2022-12-15T11:56:07.093Z,97789.06
2022-12-15T11:58:59.730Z,97781.13
2022-12-15T12:04:39.996Z,97790.19
2022-12-15T12:07:22.498Z,97785.88
2022-12-15T12:10:03.657Z,97787.16
2022-12-15T12:12:45.679Z,97796.28
2022-12-15T12:15:37.596Z,97811.44
2022-12-15T12:18:33.723Z,97801.34
2022-12-15T12:21:07.933Z,97779.41
2022-12-15T12:23:46.945Z,97781.06
2022-12-15T12:26:25.025Z,97780.28
2022-12-15T12:29:00.698Z,97766.88
2022-12-15T12:32:04.054Z,97772.50
2022-12-15T12:34:51.090Z,97771.09
2022-12-15T12:37:40.578Z,97766.41
2022-12-15T12:40:21.558Z,97776.69
2022-12-15T12:42:59.039Z,97756.34
2022-12-15T12:45:52.293Z,97753.31
2022-12-15T12:48:35.409Z,97752.66
2022-12-15T12:51:13.770Z,97748.16
2022-12-15T12:53:41.991Z,97759.50
2022-12-15T12:56:40.726Z,97762.53
2022-12-15T12:59:30.379Z,97751.03
2022-12-15T13:02:14.457Z,97748.97
2022-12-15T13:04:44.419Z,97749.69
2022-12-15T13:07:29.337Z,97745.88
2022-12-15T13:10:09.189Z,97740.69
2022-12-15T13:12:54.524Z,97739.34
2022-12-15T13:15:39.300Z,97742.53
2022-12-15T13:18:19.690Z,97742.41
2022-12-15T13:20:50.725Z,97752.66
2022-12-15T13:23:21.904Z,97769.69
2022-12-15T13:25:55.987Z,97753.25
2022-12-15T13:28:49.154Z,97766.88
2022-12-15T13:31:21.750Z,97773.69
2022-12-15T13:33:50.114Z,97783.22
2022-12-15T13:36:37.116Z,97772.69
2022-12-15T13:39:11.187Z,97756.88
2022-12-15T13:42:31.737Z,97758.59
2022-12-15T13:44:53.342Z,97767.91
2022-12-15T13:47:31.273Z,97768.56
2022-12-15T13:50:12.829Z,97769.13
2022-12-15T13:53:18.006Z,97753.50
2022-12-15T13:55:52.477Z,97760.84
2022-12-15T13:58:22.045Z,97758.50
2022-12-15T14:00:56.233Z,97751.47
2022-12-15T14:03:24.900Z,97744.13
2022-12-15T14:05:55.875Z,97735.19
2022-12-15T14:08:27.112Z,97734.09
2022-12-15T14:10:57.807Z,97738.78
2022-12-15T14:13:30.174Z,97736.31
2022-12-15T14:16:19.093Z,97742.84
2022-12-15T14:19:03.899Z,97749.28
2022-12-15T14:21:31.820Z,97752.31
2022-12-15T14:24:36.922Z,97746.75
2022-12-15T14:26:48.970Z,97759.13
2022-12-15T14:29:19.324Z,97747.88
2022-12-15T14:31:51.203Z,97766.03
2022-12-15T14:34:23.988Z,97774.38
2022-12-15T14:36:55.862Z,97762.84
2022-12-15T14:39:34.608Z,97766.94
2022-12-15T14:42:03.474Z,97756.72
2022-12-15T14:47:30.897Z,97762.94
2022-12-15T14:50:01.737Z,97750.94
2022-12-15T14:52:37.307Z,97753.97
2022-12-15T14:55:20.845Z,97747.47
2022-12-15T14:57:53.474Z,97741.47
2022-12-15T15:00:32.627Z,97737.63
2022-12-15T15:03:04.869Z,97788.47
2022-12-15T15:03:27.545Z,97732.03
2022-12-15T15:05:59.486Z,97719.59
2022-12-15T15:08:37.318Z,97720.81
2022-12-15T15:11:23.172Z,97718.31
2022-12-15T15:13:59.036Z,97709.16
2022-12-15T15:16:27.754Z,97707.34
2022-12-15T15:18:56.517Z,97723.03
2022-12-15T15:21:27.610Z,97715.63
2022-12-15T15:24:02.591Z,97717.78
2022-12-15T15:26:31.475Z,97724.25
2022-12-15T15:28:59.524Z,97714.16
2022-12-15T15:31:41.409Z,97718.38
2022-12-15T15:34:09.906Z,97714.41
2022-12-15T15:36:39.018Z,97719.97
2022-12-15T15:39:15.072Z,97722.00
2022-12-15T15:41:43.048Z,97731.63
2022-12-15T15:44:14.752Z,97732.84
2022-12-15T15:46:51.671Z,97728.59
2022-12-15T15:49:21.879Z,97737.34
2022-12-15T15:51:49.759Z,97723.59
2022-12-15T15:54:23.205Z,97723.22
2022-12-15T15:56:51.665Z,97723.63
2022-12-15T15:59:21.181Z,97713.94
2022-12-15T16:01:57.705Z,97723.31
2022-12-15T16:04:26.354Z,97719.28
2022-12-15T16:06:54.597Z,97704.25
2022-12-15T16:09:24.847Z,97694.09
2022-12-15T16:11:54.444Z,97689.66
2022-12-15T16:14:22.314Z,97680.63
2022-12-15T16:16:50.220Z,97671.06
2022-12-15T16:19:18.141Z,97670.63
2022-12-15T16:21:50.780Z,97675.69
2022-12-15T16:24:19.529Z,97668.41
2022-12-15T16:26:50.031Z,97681.25
2022-12-15T16:29:20.734Z,97666.63
2022-12-15T16:31:48.901Z,97667.31
2022-12-15T16:34:19.133Z,97672.06
2022-12-15T16:36:48.395Z,97665.03
2022-12-15T16:39:28.966Z,97671.00
2022-12-15T16:41:57.285Z,97662.13
2022-12-15T16:44:27.353Z,97668.00
2022-12-15T16:46:55.450Z,97664.03
2022-12-15T16:49:23.564Z,97671.78
2022-12-15T16:51:53.792Z,97676.59
2022-12-15T16:54:27.224Z,97664.78
2022-12-15T16:56:57.581Z,97659.38
2022-12-15T16:59:35.401Z,97658.34
2022-12-15T17:02:27.630Z,97647.94
2022-12-15T17:04:55.956Z,97656.59
2022-12-15T17:07:27.016Z,97647.59
2022-12-15T17:09:55.886Z,97650.00
2022-12-15T17:12:23.781Z,97644.78
2022-12-15T17:14:51.699Z,97634.53
2022-12-15T17:17:20.057Z,97633.50
2022-12-15T17:20:27.532Z,97640.78
2022-12-15T17:22:38.321Z,97641.44
2022-12-15T17:25:13.581Z,97632.31
2022-12-15T17:27:41.545Z,97645.28
2022-12-15T17:30:14.442Z,97630.78
2022-12-15T17:32:44.154Z,97633.31
2022-12-15T17:35:12.504Z,97632.72
2022-12-15T17:37:41.026Z,97630.69
2022-12-15T17:40:23.794Z,97638.94
2022-12-15T17:42:51.725Z,97635.59
2022-12-15T17:45:24.452Z,97643.72
2022-12-15T17:47:52.875Z,97642.34
2022-12-15T17:50:20.805Z,97654.81
2022-12-15T17:52:48.843Z,97655.63
2022-12-15T17:55:27.909Z,97647.88
2022-12-15T17:57:59.177Z,97649.78
2022-12-15T18:00:29.828Z,97634.31
2022-12-15T18:03:00.307Z,97640.16
2022-12-15T18:05:30.261Z,97632.88
2022-12-15T18:08:01.655Z,97646.38
2022-12-15T18:10:38.446Z,97631.91
2022-12-15T18:13:30.324Z,97619.09
2022-12-15T18:16:04.123Z,97625.66
2022-12-15T18:18:32.161Z,97616.63
2022-12-15T18:21:03.449Z,97615.91
2022-12-15T18:23:32.478Z,97612.13
2022-12-15T18:26:03.089Z,97598.22
2022-12-15T18:28:34.003Z,97598.94
2022-12-15T18:31:21.824Z,97588.31
2022-12-15T18:33:50.275Z,97583.19
2022-12-15T18:36:20.024Z,97582.69
2022-12-15T18:38:48.005Z,97573.25
2022-12-15T18:41:18.092Z,97566.88
2022-12-15T18:43:46.301Z,97568.94
2022-12-15T18:46:20.336Z,97570.38
2022-12-15T18:48:48.276Z,97583.69
2022-12-15T18:51:21.686Z,97580.66
2022-12-15T18:53:49.816Z,97573.94
2022-12-15T18:56:21.483Z,97572.06
2022-12-15T18:58:49.643Z,97575.69
2022-12-15T19:01:17.738Z,97563.88
2022-12-15T19:03:45.680Z,97570.44
2022-12-15T19:06:23.954Z,97561.09
2022-12-15T19:08:53.701Z,97566.63
2022-12-15T19:11:31.244Z,97560.41
2022-12-15T19:14:00.658Z,97559.16
2022-12-15T19:16:52.359Z,97565.81
2022-12-15T19:19:38.860Z,97559.59
2022-12-15T19:22:30.014Z,97543.97
2022-12-15T19:24:59.073Z,97545.03
2022-12-15T19:27:27.145Z,97555.09
2022-12-15T19:29:55.821Z,97561.22
2022-12-15T19:32:24.161Z,97552.41
2022-12-15T19:34:53.232Z,97550.81
2022-12-15T19:37:27.583Z,97536.94
2022-12-15T19:39:58.093Z,97532.13
2022-12-15T19:42:31.605Z,97531.38
2022-12-15T19:45:01.554Z,97541.00
2022-12-15T19:47:29.885Z,97536.88
2022-12-15T19:49:57.791Z,97535.94
2022-12-15T19:52:26.858Z,97535.09
2022-12-15T19:54:54.828Z,97518.22
2022-12-15T19:57:22.690Z,97505.13
2022-12-15T19:59:51.069Z,97514.81
2022-12-15T20:02:21.088Z,97497.31
2022-12-15T20:04:49.123Z,97491.13
2022-12-15T20:07:33.369Z,97483.28
2022-12-15T20:10:03.015Z,97489.69
2022-12-15T20:12:31.736Z,97476.44
2022-12-15T20:14:59.685Z,97479.97
2022-12-15T20:17:28.150Z,97478.66
2022-12-15T20:19:55.985Z,97468.44
2022-12-15T20:22:24.456Z,97476.63
2022-12-15T20:24:52.305Z,97475.19
2022-12-15T20:27:20.259Z,97470.41
2022-12-15T20:29:48.187Z,97480.13
2022-12-15T20:32:19.842Z,97470.41
2022-12-15T20:34:48.635Z,97479.81
2022-12-15T20:37:19.134Z,97475.38
2022-12-15T20:39:49.444Z,97487.31
2022-12-15T20:42:22.005Z,97473.63
2022-12-15T20:44:50.070Z,97466.78
2022-12-15T20:47:23.009Z,97470.91
2022-12-15T20:49:52.869Z,97456.88
2022-12-15T20:52:23.509Z,97462.44
2022-12-15T20:54:53.485Z,97452.88
2022-12-15T20:57:21.499Z,97444.25
2022-12-15T20:59:49.482Z,97453.81
2022-12-15T21:02:21.540Z,97436.63
2022-12-15T21:04:50.769Z,97449.47
2022-12-15T21:07:18.900Z,97430.22
2022-12-15T21:09:46.841Z,97437.88
2022-12-15T21:12:27.542Z,97434.56
2022-12-15T21:14:55.438Z,97442.47
2022-12-15T21:17:25.795Z,97429.78
2022-12-15T21:19:54.869Z,97421.97
2022-12-15T21:22:26.587Z,97426.22
2022-12-15T21:24:57.391Z,97420.69
2022-12-15T21:27:25.352Z,97428.97
2022-12-15T21:29:53.399Z,97434.09
2022-12-15T21:32:21.489Z,97434.75
2022-12-15T21:34:50.044Z,97436.13
2022-12-15T21:37:27.272Z,97418.13
2022-12-15T21:39:56.376Z,97418.59
2022-12-15T21:42:24.705Z,97430.09
2022-12-15T21:44:53.018Z,97428.84
2022-12-15T21:47:20.843Z,97427.41
2022-12-15T21:49:48.790Z,97427.72
2022-12-15T21:52:17.509Z,97403.81
2022-12-15T21:54:45.465Z,97409.03
2022-12-15T21:57:13.817Z,97393.25
2022-12-15T21:59:42.490Z,97397.25
2022-12-15T22:02:26.937Z,97407.75
2022-12-15T22:04:55.304Z,97397.41
2022-12-15T22:07:23.419Z,97402.19
2022-12-15T22:09:51.813Z,97401.25
2022-12-15T22:12:21.947Z,97408.44
2022-12-15T22:14:49.881Z,97408.44
2022-12-15T22:17:21.893Z,97400.78
2022-12-15T22:19:49.796Z,97400.31
2022-12-15T22:22:36.049Z,97403.47
2022-12-15T22:25:04.306Z,97404.28
2022-12-15T22:27:33.476Z,97403.00
2022-12-15T22:30:01.355Z,97393.94
2022-12-15T22:32:30.377Z,97396.31
2022-12-15T22:34:58.279Z,97411.13
2022-12-15T22:37:26.486Z,97410.47
2022-12-15T22:39:54.418Z,97386.38
2022-12-15T22:42:22.627Z,97379.06
2022-12-15T22:44:51.230Z,97370.75
2022-12-15T22:47:19.763Z,97351.41
2022-12-15T22:49:47.722Z,97337.59
2022-12-15T22:52:18.977Z,97320.06
2022-12-15T22:54:47.978Z,97314.97
2022-12-15T22:57:22.467Z,97328.19
2022-12-15T23:00:00.785Z,97333.00
2022-12-15T23:02:33.385Z,97321.53
2022-12-15T23:05:02.094Z,97304.94
2022-12-15T23:07:30.345Z,97309.22
2022-12-15T23:10:17.054Z,97314.34
2022-12-15T23:12:44.984Z,97293.28
2022-12-15T23:15:31.687Z,97288.03
2022-12-15T23:17:59.629Z,97290.44
2022-12-15T23:20:27.500Z,97285.78
2022-12-15T23:22:55.423Z,97297.09
2022-12-15T23:25:23.312Z,97291.06
2022-12-15T23:27:51.574Z,97278.13
2022-12-15T23:30:20.054Z,97265.53
2022-12-15T23:32:48.177Z,97259.63
2022-12-15T23:35:16.370Z,97269.53
2022-12-15T23:37:44.460Z,97248.66
2022-12-15T23:40:13.357Z,97237.16
2022-12-15T23:42:41.292Z,97232.88
2022-12-15T23:45:09.603Z,97227.44
2022-12-15T23:47:37.570Z,97215.31
2022-12-15T23:50:05.951Z,97199.88
2022-12-15T23:52:34.216Z,97191.91
2022-12-15T23:55:02.421Z,97198.13
2022-12-15T23:57:30.449Z,97171.50
2022-12-15T23:59:58.382Z,97165.59
